Cobleskill, NY

07:17 EDT 20. Oktoober 2014 (GMT -0400)
Cobleskill Richmondville | Change Station
CLOSE
Current Station
Isiklikud ilmajaamad
Location: Richmondville, NY
Kõrgus: 965 ft
Nearby Weather Stations

Elev 965 ft 42.65 °N, 74.53 °W | Updated 2 seconds ago

Osaliselt pilves
Osaliselt pilves
37.0 °F
Feels Like 37 °F
Põhja
0.0
Tuul Muutliku suunaga Tuul from Lõunaedela
Gusts 0.0 mph

Täna
High -- | Low -- °F
--% Chance of Precip.
Eile
High -- | Low -- °F
Precip. -- tolli
7:17 AM 6:07 PM
Poolkuu (viimane veerand), 11% visible
Õhurõhk 30.05 tolli
Nähtavus 10.0 miili
Pilved Few 4000 ft
Peamiselt pilves 13000 ft
Tuulekülm 37 °F
Kastepunkt 36 °F
Õhuniiskus 97%
Sademed 0.00 tolli
Lume paksus Not available.
UV 0 , kõrgeim võimalik 12
Õietolm .50 , kõrgeim võimalik 12
Osoon Hea
PM2.5 Hea
Flu Activity Sporadic
METAR KALB 201051Z 00000KT 10SM FEW040 BKN130 00/M02 A3004 RMK AO2 SLP176 T00001022 $

More Conditions Fewer Conditions

Õhurõhk 30.05 tolli
Nähtavus 10.0 miili
Pilved Few 4000 ft
Peamiselt pilves 13000 ft
Tuulekülm 37 °F
Kastepunkt 36 °F
Õhuniiskus 97%
Sademed 0.00 tolli
Lume paksus Not available.
UV 0 , kõrgeim võimalik 12
Õietolm .50 , kõrgeim võimalik 12
Osoon Hea
PM2.5 Hea
Flu Activity Sporadic
METAR KALB 201051Z 00000KT 10SM FEW040 BKN130 00/M02 A3004 RMK AO2 SLP176 T00001022 $

More Conditions Fewer Conditions

10-Day Weather Forecast

Almanac

Astronoomia

Oct. 20, 2014 Tõus Loojang
Tegelik aeg 7:17 AM EDT 6:07 PM EDT
Tsiviilne hämarik 6:48 AM EDT 6:36 PM EDT
Nautiline hämarik 6:15 AM EDT 7:09 PM EDT
Astronoomiline hämarik 5:42 AM EDT 7:41 PM EDT
Kuu 3:58 AM EDT 4:32 PM EDT
Nähtava valguse kestus 11h 48m
Päeva pikkus
10h 50m
Poolkuu (viimane veerand), 11% of the Moon is Illuminated
Täna
Poolkuu (viimane veerand)
Okt 23
Noor
Okt 30
Esimene veerand
Nov 6
Täis
Nov 14
Viimane veerand

Tänased ekstreemumid

State Highs State Lows

Community

WunderPhotos

Upload Photos

1,763,338 photos uploaded!

Nearby

Õhukvaliteet

  Õhukvaliteet ÕK indeks Reostaja
Eile Hea
OZONE
Eile Hea
PM2.5
Hetkel Hea
PM2.5
Hetkel Hea
OZONE
Esmaspäev Hea
PM2.5

Lume paksus

Station Depth Kõrgus
Uuest lumest ei ole teatatud

Maavärinate aktiivsus

Linn Distance Mag. Time & Date
No recent earthquake activity has been reported nearby.
Minimum magnitude displayed is 2.5.

Coastal Water Temperatures

Koht Temperatuur
No Stations Reporting

Nearby Weather Stations